Time;durP1;ratioP1;P1;durP2;ratioP2;P2;SDS_P1;SDS_P2;PMS_P1;PMS_P2;Temp;Humidity;BMP_temperature;BMP_pressure;BME280_temperature;BME280_humidity;BME280_pressure;Samples;Min_cycle;Max_cycle;Signal;HPM_P1;HPM_P2
2023/08/04 00:01:00;;;;;;;;;;;;;;;22.50;100.00;97344.34;5041445;28;19960;-71
2023/08/04 00:03:27;;;;;;;;;;;;;;;22.53;100.00;97348.28;5039177;28;19981;-71
2023/08/04 00:05:53;;;;;;;;;;;;;;;22.50;100.00;97349.78;5039079;28;19925;-72
2023/08/04 00:08:19;;;;;;;;;;;;;;;22.58;100.00;97359.72;5030920;28;19949;-71
2023/08/04 00:10:47;;;;;;;;;;;;;;;22.50;100.00;97357.16;5030899;28;20020;-71
2023/08/04 00:13:14;;;;;;;;;;;;;;;22.37;100.00;97367.38;5030568;28;19929;-71
2023/08/04 00:15:40;;;;;;;;;;;;;;;22.19;100.00;97366.13;5036418;28;20415;-71
2023/08/04 00:18:06;;;;;;;;;;;;;;;22.31;100.00;97371.50;5042801;28;20282;-71
2023/08/04 00:20:33;;;;;;;;;;;;;;;22.23;100.00;97360.78;5045450;28;19936;-71
2023/08/04 00:22:59;;;;;;;;;;;;;;;22.23;100.00;97350.72;5045330;28;19978;-71
2023/08/04 00:25:25;;;;;;;;;;;;;;;22.34;100.00;97350.97;5042714;28;19964;-72
2023/08/04 00:27:53;;;;;;;;;;;;;;;22.49;100.00;97356.41;5042616;28;19961;-71
2023/08/04 00:30:19;;;;;;;;;;;;;;;22.58;100.00;97362.44;5034385;28;19932;-71
2023/08/04 00:32:47;;;;;;;;;;;;;;;22.62;100.00;97356.28;5034917;28;19960;-72
2023/08/04 00:35:14;;;;;;;;;;;;;;;22.55;100.00;97352.25;5034941;28;20509;-72
2023/08/04 00:37:40;;;;;;;;;;;;;;;22.45;100.00;97352.00;5025508;28;20033;-71
2023/08/04 00:40:07;;;;;;;;;;;;;;;22.41;100.00;97345.69;5034424;28;19980;-71
2023/08/04 00:42:34;;;;;;;;;;;;;;;22.43;100.00;97336.06;5034538;28;19925;-72
2023/08/04 00:45:02;;;;;;;;;;;;;;;22.45;100.00;97336.47;5035417;28;19925;-72
2023/08/04 00:47:35;;;;;;;;;;;;;;;22.45;100.00;97338.41;5049382;28;20317;-72
2023/08/04 00:50:01;;;;;;;;;;;;;;;22.44;100.00;97340.31;5025733;28;19948;-71
2023/08/04 00:52:27;;;;;;;;;;;;;;;22.24;100.00;97338.69;5045628;28;19951;-71
2023/08/04 00:54:54;;;;;;;;;;;;;;;22.06;100.00;97340.19;5045785;28;19925;-71
2023/08/04 00:57:20;;;;;;;;;;;;;;;21.64;100.00;97353.44;5042108;28;19932;-70
2023/08/04 00:59:46;;;;;;;;;;;;;;;21.82;100.00;97357.41;5042032;28;20009;-70
2023/08/04 01:02:14;;;;;;;;;;;;;;;22.06;100.00;97360.00;5044474;28;19985;-71
2023/08/04 01:04:41;;;;;;;;;;;;;;;22.16;100.00;97375.00;5027806;28;20430;-71
2023/08/04 01:07:14;;;;;;;;;;;;;;;22.24;100.00;97370.53;5043586;28;19925;-71
2023/08/04 01:09:45;;;;;;;;;;;;;;;22.33;100.00;97365.72;5041887;28;19949;-71
2023/08/04 01:12:15;;;;;;;;;;;;;;;22.34;100.00;97365.38;5044064;28;19925;-71
2023/08/04 01:14:42;;;;;;;;;;;;;;;22.38;100.00;97379.03;5027602;28;19964;-71
2023/08/04 01:17:27;;;;;;;;;;;;;;;22.10;100.00;97379.13;5032954;28;19926;-71
2023/08/04 01:19:55;;;;;;;;;;;;;;;21.99;100.00;97386.25;5041748;28;19925;-71
2023/08/04 01:22:23;;;;;;;;;;;;;;;21.98;100.00;97388.16;5033307;28;19925;-70
2023/08/04 01:24:50;;;;;;;;;;;;;;;21.67;100.00;97381.84;5015630;28;19957;-70
2023/08/04 01:27:18;;;;;;;;;;;;;;;20.87;100.00;97381.88;5033168;28;19957;-71
2023/08/04 01:29:46;;;;;;;;;;;;;;;20.38;100.00;97373.78;5015205;28;20648;-71
2023/08/04 01:32:12;;;;;;;;;;;;;;;20.22;100.00;97378.25;5032948;28;20521;-71
2023/08/04 01:34:44;;;;;;;;;;;;;;;20.26;100.00;97373.78;5032921;28;19926;-71
2023/08/04 01:37:11;;;;;;;;;;;;;;;20.84;100.00;97374.41;5032967;28;19981;-71
2023/08/04 01:39:38;;;;;;;;;;;;;;;21.18;100.00;97368.47;5033003;28;19956;-71
2023/08/04 01:42:05;;;;;;;;;;;;;;;21.42;100.00;97375.72;5032808;28;19932;-71
2023/08/04 01:44:32;;;;;;;;;;;;;;;21.63;100.00;97365.47;5032924;28;19925;-71
2023/08/04 01:46:58;;;;;;;;;;;;;;;21.71;100.00;97348.19;5048844;28;19956;-71
2023/08/04 01:49:24;;;;;;;;;;;;;;;21.59;100.00;97342.03;5041020;28;20291;-71
2023/08/04 01:51:50;;;;;;;;;;;;;;;21.27;100.00;97350.09;5040872;28;19925;-71
2023/08/04 01:54:17;;;;;;;;;;;;;;;21.12;100.00;97334.56;5044221;28;19956;-71
2023/08/04 01:56:45;;;;;;;;;;;;;;;21.39;100.00;97336.47;5044428;28;20511;-71
2023/08/04 01:59:11;;;;;;;;;;;;;;;21.62;100.00;97344.06;5024258;28;19985;-71
2023/08/04 02:01:37;;;;;;;;;;;;;;;21.74;100.00;97344.78;5040732;28;19929;-71
2023/08/04 02:04:04;;;;;;;;;;;;;;;21.77;100.00;97344.09;5042192;28;19925;-71
2023/08/04 02:06:30;;;;;;;;;;;;;;;21.83;100.00;97331.03;5044532;28;19925;-71
2023/08/04 02:08:56;;;;;;;;;;;;;;;21.90;100.00;97331.25;5044169;28;19929;-71
2023/08/04 02:11:23;;;;;;;;;;;;;;;21.95;100.00;97333.69;5041083;28;19926;-71
2023/08/04 02:13:50;;;;;;;;;;;;;;;21.88;100.00;97339.72;5023105;28;19932;-71
2023/08/04 02:16:17;;;;;;;;;;;;;;;21.87;100.00;97340.88;5051817;28;19929;-71
2023/08/04 02:18:43;;;;;;;;;;;;;;;21.89;100.00;97337.81;5044339;28;19967;-71
2023/08/04 02:21:09;;;;;;;;;;;;;;;21.83;100.00;97341.91;5041754;28;19960;-71
2023/08/04 02:23:36;;;;;;;;;;;;;;;21.70;100.00;97330.31;5040486;28;19952;-71
2023/08/04 02:26:02;;;;;;;;;;;;;;;21.37;100.00;97333.31;5041839;28;19984;-71
2023/08/04 02:28:29;;;;;;;;;;;;;;;20.94;100.00;97335.94;5044142;28;19948;-71
2023/08/04 02:30:59;;;;;;;;;;;;;;;20.39;100.00;97331.94;5026204;28;19936;-71
2023/08/04 02:33:25;;;;;;;;;;;;;;;20.08;100.00;97317.38;5040372;28;19944;-71
2023/08/04 02:35:59;;;;;;;;;;;;;;;19.88;100.00;97321.75;5022655;28;20294;-71
2023/08/04 02:38:25;;;;;;;;;;;;;;;20.14;100.00;97316.00;5031194;28;19925;-71
2023/08/04 02:40:51;;;;;;;;;;;;;;;20.56;100.00;97320.06;5032176;28;19944;-71
2023/08/04 02:43:18;;;;;;;;;;;;;;;20.95;100.00;97329.38;5031171;28;19976;-71
2023/08/04 02:45:47;;;;;;;;;;;;;;;21.05;100.00;97312.59;5038211;28;19925;-71
2023/08/04 02:48:15;;;;;;;;;;;;;;;21.08;100.00;97311.09;5043356;28;19932;-71
2023/08/04 02:50:41;;;;;;;;;;;;;;;21.30;100.00;97318.75;5025639;28;19963;-71
2023/08/04 02:53:07;;;;;;;;;;;;;;;21.45;100.00;97324.22;5041272;28;19996;-71
2023/08/04 02:55:34;;;;;;;;;;;;;;;21.58;100.00;97324.94;5040039;28;19953;-71
2023/08/04 02:58:00;;;;;;;;;;;;;;;21.60;100.00;97319.94;5022867;28;20413;-71
2023/08/04 03:00:26;;;;;;;;;;;;;;;21.58;100.00;97319.50;5043222;28;19969;-71
2023/08/04 03:02:53;;;;;;;;;;;;;;;21.57;100.00;97328.03;5025454;28;19989;-72
2023/08/04 03:05:20;;;;;;;;;;;;;;;21.65;100.00;97332.50;5039882;28;20388;-71
2023/08/04 03:07:47;;;;;;;;;;;;;;;21.64;100.00;97326.28;5021879;28;19960;-71
2023/08/04 03:10:13;;;;;;;;;;;;;;;21.69;100.00;97339.63;5041971;28;19952;-71
2023/08/04 03:12:39;;;;;;;;;;;;;;;21.68;100.00;97350.81;5042819;28;19924;-71
2023/08/04 03:15:06;;;;;;;;;;;;;;;21.60;100.00;97352.53;5042472;28;19925;-71
2023/08/04 03:17:35;;;;;;;;;;;;;;;21.57;100.00;97366.06;5045765;28;19961;-71
2023/08/04 03:20:02;;;;;;;;;;;;;;;21.52;100.00;97364.38;5040403;28;20088;-72
2023/08/04 03:22:30;;;;;;;;;;;;;;;21.56;100.00;97370.69;5042788;28;20245;-72
2023/08/04 03:24:57;;;;;;;;;;;;;;;21.56;100.00;97370.69;5042495;28;19932;-71
2023/08/04 03:27:23;;;;;;;;;;;;;;;21.60;100.00;97377.00;5039215;28;20351;-72
2023/08/04 03:29:50;;;;;;;;;;;;;;;21.49;100.00;97387.59;5039224;28;19925;-72
2023/08/04 03:32:16;;;;;;;;;;;;;;;21.48;100.00;97393.38;5042151;28;19967;-72
2023/08/04 03:34:42;;;;;;;;;;;;;;;21.46;100.00;97393.72;5042680;28;19932;-72
2023/08/04 03:37:09;;;;;;;;;;;;;;;20.63;100.00;97398.19;5023000;28;19953;-72
2023/08/04 03:39:36;;;;;;;;;;;;;;;20.57;100.00;97394.13;5021642;28;19953;-72
2023/08/04 03:42:03;;;;;;;;;;;;;;;20.85;100.00;97403.13;5040206;28;19933;-72
2023/08/04 03:44:29;;;;;;;;;;;;;;;21.00;100.00;97397.81;5024989;28;20275;-73
2023/08/04 03:46:56;;;;;;;;;;;;;;;20.60;100.00;97398.88;5049880;28;19953;-71
2023/08/04 03:49:22;;;;;;;;;;;;;;;19.89;100.00;97397.31;5038932;28;19949;-72
2023/08/04 03:51:48;;;;;;;;;;;;;;;19.40;100.00;97385.50;5038858;28;19953;-72
2023/08/04 03:54:15;;;;;;;;;;;;;;;19.78;100.00;97384.50;5041506;28;20019;-72
2023/08/04 03:56:42;;;;;;;;;;;;;;;20.07;100.00;97380.84;5042320;28;19967;-72
2023/08/04 03:59:11;;;;;;;;;;;;;;;20.05;100.00;97381.19;5040258;28;19998;-72
2023/08/04 04:01:38;;;;;;;;;;;;;;;19.75;100.00;97388.66;5038868;28;19929;-72
2023/08/04 04:04:05;;;;;;;;;;;;;;;19.85;100.00;97373.91;5040123;28;19926;-72
2023/08/04 04:06:31;;;;;;;;;;;;;;;20.17;100.00;97378.50;5042102;28;19925;-70
2023/08/04 04:08:57;;;;;;;;;;;;;;;20.61;100.00;97371.38;5023857;28;20474;-70
2023/08/04 04:11:24;;;;;;;;;;;;;;;20.79;100.00;97367.31;5021113;28;19948;-70
2023/08/04 04:13:51;;;;;;;;;;;;;;;20.99;100.00;97370.97;5038745;28;19960;-70
2023/08/04 04:16:18;;;;;;;;;;;;;;;21.07;100.00;97383.66;5049926;28;19992;-71
2023/08/04 04:18:44;;;;;;;;;;;;;;;21.16;100.00;97376.19;5042070;28;19926;-72
2023/08/04 04:21:11;;;;;;;;;;;;;;;21.24;100.00;97382.59;5040003;28;20059;-71
2023/08/04 04:23:37;;;;;;;;;;;;;;;21.26;100.00;97391.22;5038653;28;19965;-70
2023/08/04 04:26:07;;;;;;;;;;;;;;;21.24;100.00;97394.25;5039803;28;19925;-71
2023/08/04 04:28:33;;;;;;;;;;;;;;;21.30;100.00;97406.44;5041903;28;19936;-71
2023/08/04 04:31:02;;;;;;;;;;;;;;;20.94;100.00;97407.31;5041344;28;19993;-71
2023/08/04 04:33:29;;;;;;;;;;;;;;;20.49;100.00;97408.59;5038879;28;20388;-71
2023/08/04 04:35:55;;;;;;;;;;;;;;;20.71;100.00;97405.41;5038747;28;19944;-71
2023/08/04 04:38:26;;;;;;;;;;;;;;;20.74;100.00;97421.78;5042754;28;19956;-71
2023/08/04 04:40:55;;;;;;;;;;;;;;;20.57;100.00;97429.38;5049179;28;19944;-71
2023/08/04 04:43:21;;;;;;;;;;;;;;;20.51;100.00;97425.31;5037443;28;19909;-71
2023/08/04 04:45:48;;;;;;;;;;;;;;;20.77;100.00;97431.19;5044033;28;19959;-71
2023/08/04 04:48:16;;;;;;;;;;;;;;;20.92;100.00;97430.50;5044667;28;19929;-71
2023/08/04 04:50:43;;;;;;;;;;;;;;;21.02;100.00;97424.59;5041774;28;19932;-71
2023/08/04 04:53:09;;;;;;;;;;;;;;;20.99;100.00;97412.50;5039657;28;19944;-71
2023/08/04 04:55:36;;;;;;;;;;;;;;;20.74;100.00;97426.44;5038905;28;19925;-71
2023/08/04 04:58:02;;;;;;;;;;;;;;;20.37;100.00;97422.91;5039610;28;20000;-71
2023/08/04 05:00:29;;;;;;;;;;;;;;;20.35;100.00;97425.19;5042340;28;19929;-71
2023/08/04 05:02:55;;;;;;;;;;;;;;;20.32;100.00;97421.25;5042116;28;19956;-70
2023/08/04 05:05:23;;;;;;;;;;;;;;;20.58;100.00;97433.69;5040032;28;20324;-70
2023/08/04 05:07:49;;;;;;;;;;;;;;;20.75;100.00;97433.44;5042332;28;19952;-71
2023/08/04 05:10:16;;;;;;;;;;;;;;;20.94;100.00;97436.38;5045718;28;19960;-71
2023/08/04 05:12:42;;;;;;;;;;;;;;;21.07;100.00;97446.09;5045732;28;19968;-71
2023/08/04 05:15:09;;;;;;;;;;;;;;;21.17;100.00;97445.63;5045105;28;19936;-71
2023/08/04 05:17:36;;;;;;;;;;;;;;;20.93;100.00;97435.59;5048080;28;19968;-70
2023/08/04 05:20:02;;;;;;;;;;;;;;;20.50;100.00;97437.28;5042877;28;19997;-70
2023/08/04 05:22:30;;;;;;;;;;;;;;;20.07;100.00;97441.28;5045366;28;19929;-70
2023/08/04 05:24:56;;;;;;;;;;;;;;;20.10;100.00;97443.31;5045057;28;19925;-70
2023/08/04 05:27:23;;;;;;;;;;;;;;;20.24;100.00;97443.78;5041810;28;19964;-70
2023/08/04 05:29:49;;;;;;;;;;;;;;;20.28;100.00;97442.00;5041612;28;19925;-70
2023/08/04 05:32:16;;;;;;;;;;;;;;;20.16;100.00;97460.94;5044389;28;19943;-70
2023/08/04 05:34:42;;;;;;;;;;;;;;;20.39;100.00;97458.66;5044695;28;19925;-70
2023/08/04 05:37:08;;;;;;;;;;;;;;;20.28;100.00;97469.13;5042929;28;19936;-72
2023/08/04 05:39:36;;;;;;;;;;;;;;;20.28;100.00;97455.56;5041348;28;19926;-71
2023/08/04 05:42:03;;;;;;;;;;;;;;;19.66;100.00;97465.75;5042422;28;19948;-71
2023/08/04 05:44:29;;;;;;;;;;;;;;;19.34;100.00;97464.56;5044545;28;19925;-71
2023/08/04 05:46:56;;;;;;;;;;;;;;;19.15;100.00;97459.59;5052469;28;19936;-71
2023/08/04 05:49:22;;;;;;;;;;;;;;;18.95;100.00;97468.47;5041208;28;19925;-71
2023/08/04 05:51:49;;;;;;;;;;;;;;;18.79;100.00;97467.44;5041058;28;19929;-71
2023/08/04 05:54:15;;;;;;;;;;;;;;;18.69;100.00;97470.53;5043734;28;19969;-71
2023/08/04 05:56:45;;;;;;;;;;;;;;;18.75;100.00;97466.53;5043780;28;20449;-71
2023/08/04 05:59:11;;;;;;;;;;;;;;;18.70;100.00;97466.69;5041983;28;19989;-71
2023/08/04 06:01:37;;;;;;;;;;;;;;;18.60;100.00;97470.53;5040921;28;19952;-71
2023/08/04 06:04:04;;;;;;;;;;;;;;;18.59;100.00;97473.59;5024334;28;19948;-71
2023/08/04 06:06:30;;;;;;;;;;;;;;;18.86;100.00;97462.31;5044245;28;20338;-71
2023/08/04 06:08:57;;;;;;;;;;;;;;;19.25;100.00;97461.88;5043666;28;19957;-70
2023/08/04 06:11:24;;;;;;;;;;;;;;;19.63;100.00;97460.97;5040640;28;19933;-70
2023/08/04 06:13:52;;;;;;;;;;;;;;;19.75;100.00;97469.94;5040713;28;19983;-71
2023/08/04 06:16:18;;;;;;;;;;;;;;;19.74;100.00;97462.19;5051295;28;19947;-70
2023/08/04 06:18:44;;;;;;;;;;;;;;;19.46;100.00;97471.97;5044173;28;19972;-71
2023/08/04 06:21:11;;;;;;;;;;;;;;;19.51;100.00;97477.97;5041934;28;19993;-71
2023/08/04 06:23:37;;;;;;;;;;;;;;;19.77;100.00;97477.75;5040819;28;19925;-71
2023/08/04 06:26:04;;;;;;;;;;;;;;;20.10;100.00;97477.75;5041672;28;19926;-71
2023/08/04 06:28:30;;;;;;;;;;;;;;;20.40;100.00;97485.41;5043869;28;19926;-70
2023/08/04 06:31:01;;;;;;;;;;;;;;;20.59;100.00;97484.88;5043404;28;20503;-71
2023/08/04 06:33:27;;;;;;;;;;;;;;;20.56;100.00;97476.63;5040172;28;20129;-74
2023/08/04 06:35:54;;;;;;;;;;;;;;;20.25;100.00;97480.63;5040420;28;19932;-70
2023/08/04 06:38:20;;;;;;;;;;;;;;;20.07;100.00;97476.50;5022698;28;19961;-70
2023/08/04 06:40:47;;;;;;;;;;;;;;;19.97;100.00;97478.84;5040267;28;19936;-71
2023/08/04 06:43:13;;;;;;;;;;;;;;;19.73;100.00;97480.34;5042553;28;19932;-71
2023/08/04 06:45:39;;;;;;;;;;;;;;;19.57;100.00;97481.28;5043472;28;19964;-71
2023/08/04 06:48:07;;;;;;;;;;;;;;;19.43;100.00;97480.75;5043426;28;19929;-71
2023/08/04 06:50:33;;;;;;;;;;;;;;;19.34;100.00;97478.84;5025981;28;20024;-71
2023/08/04 06:53:00;;;;;;;;;;;;;;;19.40;100.00;97477.56;5043177;28;19996;-71
2023/08/04 06:55:26;;;;;;;;;;;;;;;19.47;100.00;97481.66;5022587;28;19925;-71
2023/08/04 06:57:52;;;;;;;;;;;;;;;19.43;100.00;97489.69;5040062;28;19932;-70
2023/08/04 07:00:19;;;;;;;;;;;;;;;19.56;100.00;97480.47;5043359;28;19936;-70
2023/08/04 07:02:46;;;;;;;;;;;;;;;19.59;100.00;97479.81;5043434;28;19967;-71
2023/08/04 07:05:14;;;;;;;;;;;;;;;19.89;100.00;97480.53;5040809;28;19936;-72
2023/08/04 07:07:41;;;;;;;;;;;;;;;20.28;100.00;97482.69;5022106;28;19932;-72
2023/08/04 07:10:08;;;;;;;;;;;;;;;20.33;100.00;97482.47;5041390;28;19926;-72
2023/08/04 07:12:34;;;;;;;;;;;;;;;20.63;100.00;97485.00;5043125;28;19925;-72
2023/08/04 07:15:01;;;;;;;;;;;;;;;20.72;100.00;97482.97;5042584;28;19925;-72
2023/08/04 07:17:27;;;;;;;;;;;;;;;20.89;100.00;97488.97;5046618;28;19948;-72
2023/08/04 07:19:54;;;;;;;;;;;;;;;20.83;100.00;97490.31;5039590;28;19975;-72
2023/08/04 07:22:21;;;;;;;;;;;;;;;20.92;100.00;97487.50;5031256;28;19993;-72
2023/08/04 07:24:53;;;;;;;;;;;;;;;20.95;100.00;97492.25;5021973;28;19936;-72
2023/08/04 07:27:19;;;;;;;;;;;;;;;20.99;100.00;97495.84;5031225;28;19929;-71
2023/08/04 07:29:45;;;;;;;;;;;;;;;21.05;100.00;97496.41;5030993;28;19925;-71
2023/08/04 07:32:12;;;;;;;;;;;;;;;20.98;100.00;97492.34;5038605;28;20015;-72
2023/08/04 07:34:38;;;;;;;;;;;;;;;21.08;100.00;97498.44;5040407;28;19933;-72
2023/08/04 07:37:05;;;;;;;;;;;;;;;21.05;100.00;97486.34;5047252;28;19921;-71
2023/08/04 07:39:33;;;;;;;;;;;;;;;21.18;100.00;97498.81;5050195;28;19921;-70
2023/08/04 07:41:59;;;;;;;;;;;;;;;21.25;100.00;97490.91;5049317;28;19913;-70
2023/08/04 07:44:25;;;;;;;;;;;;;;;21.13;100.00;97490.13;5046037;28;19932;-70
2023/08/04 07:46:52;;;;;;;;;;;;;;;21.28;100.00;97506.50;5035749;28;19940;-71
2023/08/04 07:49:18;;;;;;;;;;;;;;;21.09;100.00;97500.88;5040743;28;19967;-71
2023/08/04 07:51:45;;;;;;;;;;;;;;;21.13;100.00;97499.06;5039996;28;19925;-71
2023/08/04 07:54:11;;;;;;;;;;;;;;;21.27;100.00;97498.69;5024111;28;19926;-72
2023/08/04 07:56:39;;;;;;;;;;;;;;;21.38;100.00;97489.75;5042618;28;19929;-71
2023/08/04 07:59:05;;;;;;;;;;;;;;;21.20;100.00;97485.69;5041230;28;19925;-71
2023/08/04 08:01:31;;;;;;;;;;;;;;;21.29;100.00;97493.72;5039667;28;19932;-72
2023/08/04 08:03:58;;;;;;;;;;;;;;;21.41;100.00;97490.97;5039603;28;19948;-71
2023/08/04 08:06:24;;;;;;;;;;;;;;;21.50;100.00;97497.88;5042553;28;19926;-72
2023/08/04 08:08:51;;;;;;;;;;;;;;;21.16;100.00;97492.94;5025286;28;19925;-71
2023/08/04 08:11:17;;;;;;;;;;;;;;;20.84;100.00;97501.97;5039306;28;19996;-71
2023/08/04 08:13:45;;;;;;;;;;;;;;;20.81;100.00;97502.66;5039004;28;19925;-72
2023/08/04 08:16:15;;;;;;;;;;;;;;;20.99;100.00;97493.94;5049289;28;19933;-71
2023/08/04 08:18:42;;;;;;;;;;;;;;;21.28;100.00;97489.41;5042692;28;19997;-71
2023/08/04 08:21:09;;;;;;;;;;;;;;;21.29;100.00;97494.50;5040576;28;19925;-71
2023/08/04 08:23:35;;;;;;;;;;;;;;;21.50;100.00;97507.94;5038961;28;19997;-71
2023/08/04 08:26:04;;;;;;;;;;;;;;;21.48;100.00;97510.97;5040028;28;19932;-71
2023/08/04 08:28:30;;;;;;;;;;;;;;;21.55;100.00;97515.84;5042347;28;19929;-71
2023/08/04 08:31:10;;;;;;;;;;;;;;;21.49;100.00;97514.50;5042321;28;19985;-71
2023/08/04 08:33:38;;;;;;;;;;;;;;;21.35;100.00;97512.13;5039082;28;19925;-71
2023/08/04 08:36:05;;;;;;;;;;;;;;;21.28;100.00;97498.34;5040520;28;19933;-72
2023/08/04 08:38:32;;;;;;;;;;;;;;;21.30;100.00;97493.38;5024816;28;19925;-71
2023/08/04 08:40:58;;;;;;;;;;;;;;;21.52;100.00;97501.03;5044109;28;19983;-71
2023/08/04 08:43:24;;;;;;;;;;;;;;;21.59;100.00;97502.34;5042983;28;20418;-71
2023/08/04 08:45:51;;;;;;;;;;;;;;;21.50;100.00;97503.28;5032425;28;19952;-71
2023/08/04 08:48:19;;;;;;;;;;;;;;;21.60;100.00;97498.50;5046368;28;19925;-72
2023/08/04 08:50:48;;;;;;;;;;;;;;;21.56;100.00;97503.03;5045876;28;19924;-71
2023/08/04 08:53:16;;;;;;;;;;;;;;;21.31;100.00;97503.09;5025708;28;19925;-75
2023/08/04 08:55:44;;;;;;;;;;;;;;;21.58;100.00;97498.06;5042516;28;19925;-71
2023/08/04 08:58:11;;;;;;;;;;;;;;;21.90;100.00;97502.50;5044607;28;19940;-71
2023/08/04 09:00:38;;;;;;;;;;;;;;;22.00;100.00;97491.16;5045885;28;19932;-71
2023/08/04 09:03:04;;;;;;;;;;;;;;;21.85;100.00;97497.31;5044678;28;19984;-71
2023/08/04 09:05:32;;;;;;;;;;;;;;;21.75;100.00;97501.31;5042359;28;19930;-72
2023/08/04 09:07:59;;;;;;;;;;;;;;;21.65;100.00;97503.69;5042671;28;19926;-72
2023/08/04 09:10:25;;;;;;;;;;;;;;;21.66;100.00;97497.94;5028222;28;19948;-71
2023/08/04 09:12:52;;;;;;;;;;;;;;;21.58;100.00;97506.19;5045777;28;19948;-72
2023/08/04 09:15:18;;;;;;;;;;;;;;;21.52;100.00;97498.31;5045294;28;19925;-70
2023/08/04 09:17:45;;;;;;;;;;;;;;;21.51;100.00;97491.28;5047214;28;19932;-72
2023/08/04 09:20:26;;;;;;;;;;;;;;;21.64;100.00;97491.22;5027080;28;19926;-71
2023/08/04 09:22:54;;;;;;;;;;;;;;;21.90;100.00;97478.84;5045872;28;19948;-71
2023/08/04 09:25:20;;;;;;;;;;;;;;;21.89;100.00;97481.88;5033876;28;19965;-71
2023/08/04 09:27:49;;;;;;;;;;;;;;;21.56;100.00;97475.88;5033606;28;19977;-71
2023/08/04 09:30:16;;;;;;;;;;;;;;;21.78;100.00;97476.16;5033565;28;19968;-71
2023/08/04 09:32:43;;;;;;;;;;;;;;;21.92;100.00;97476.56;5033478;28;19926;-71
2023/08/04 09:35:10;;;;;;;;;;;;;;;21.92;100.00;97470.31;5033469;28;19990;-72
2023/08/04 09:37:38;;;;;;;;;;;;;;;22.05;100.00;97467.22;5033409;28;19925;-71
2023/08/04 09:40:12;;;;;;;;;;;;;;;22.14;100.00;97467.03;5033204;28;19925;-71
2023/08/04 09:42:40;;;;;;;;;;;;;;;22.00;100.00;97472.13;5033092;28;19925;-71
2023/08/04 09:45:08;;;;;;;;;;;;;;;22.09;100.00;97467.31;5034151;28;19925;-71
2023/08/04 09:47:34;;;;;;;;;;;;;;;22.20;100.00;97460.22;5047613;28;19933;-71
2023/08/04 09:50:01;;;;;;;;;;;;;;;22.23;100.00;97467.66;5041949;28;20561;-71
2023/08/04 09:52:30;;;;;;;;;;;;;;;22.26;100.00;97460.72;5044441;28;19925;-71
2023/08/04 09:54:57;;;;;;;;;;;;;;;22.38;100.00;97461.44;5044442;28;19936;-71
2023/08/04 09:57:27;;;;;;;;;;;;;;;22.20;100.00;97462.13;5040953;28;19938;-71
2023/08/04 09:59:54;;;;;;;;;;;;;;;22.16;100.00;97451.16;5041000;28;19961;-72
2023/08/04 10:02:20;;;;;;;;;;;;;;;22.19;100.00;97457.84;5026707;28;19968;-71
2023/08/04 10:05:01;;;;;;;;;;;;;;;22.23;100.00;97459.50;5044534;28;19925;-71
2023/08/04 10:07:29;;;;;;;;;;;;;;;21.83;100.00;97464.22;5041015;28;19926;-71
2023/08/04 10:09:56;;;;;;;;;;;;;;;22.10;100.00;97465.38;5041341;28;19936;-71
2023/08/04 10:12:23;;;;;;;;;;;;;;;22.37;100.00;97465.34;5044408;28;20426;-71
2023/08/04 10:14:51;;;;;;;;;;;;;;;22.29;100.00;97466.28;5044440;28;19992;-71
2023/08/04 10:17:19;;;;;;;;;;;;;;;22.26;100.00;97458.81;5049551;28;19949;-72
2023/08/04 10:19:45;;;;;;;;;;;;;;;21.93;100.00;97466.47;5023537;28;19925;-71
2023/08/04 10:22:12;;;;;;;;;;;;;;;21.92;100.00;97459.44;5043009;28;19930;-72
2023/08/04 10:24:41;;;;;;;;;;;;;;;21.83;100.00;97466.94;5044337;28;19925;-72
2023/08/04 10:27:15;;;;;;;;;;;;;;;21.78;100.00;97459.03;5042701;28;19932;-72
2023/08/04 10:29:41;;;;;;;;;;;;;;;21.84;100.00;97463.09;5040792;28;19925;-71
2023/08/04 10:32:09;;;;;;;;;;;;;;;21.86;100.00;97460.81;5042257;28;19932;-71
2023/08/04 10:34:36;;;;;;;;;;;;;;;21.77;100.00;97457.44;5043939;28;19925;-71
2023/08/04 10:37:05;;;;;;;;;;;;;;;21.81;100.00;97452.91;5042869;28;20371;-71
2023/08/04 10:39:32;;;;;;;;;;;;;;;21.84;100.00;97447.56;5040667;28;19925;-72
2023/08/04 10:41:59;;;;;;;;;;;;;;;21.86;100.00;97448.00;5023627;28;19957;-72
2023/08/04 10:44:28;;;;;;;;;;;;;;;22.00;100.00;97455.81;5026588;28;19963;-72
2023/08/04 10:46:59;;;;;;;;;;;;;;;22.00;100.00;97450.38;5052054;28;19925;-71
2023/08/04 10:49:42;;;;;;;;;;;;;;;22.00;100.00;97453.84;5023016;28;19957;-71
2023/08/04 10:52:08;;;;;;;;;;;;;;;22.11;100.00;97466.94;5042162;28;19992;-72
2023/08/04 10:54:35;;;;;;;;;;;;;;;22.17;100.00;97471.78;5043930;28;19964;-71
2023/08/04 10:57:01;;;;;;;;;;;;;;;22.15;100.00;97468.63;5043194;28;19932;-71
2023/08/04 10:59:29;;;;;;;;;;;;;;;22.06;100.00;97470.72;5040672;28;19925;-71
2023/08/04 11:01:56;;;;;;;;;;;;;;;22.10;100.00;97463.44;5040617;28;19932;-71
2023/08/04 11:04:22;;;;;;;;;;;;;;;22.26;100.00;97463.44;5043446;28;19928;-72
2023/08/04 11:06:50;;;;;;;;;;;;;;;22.19;100.00;97472.22;5027755;28;19921;-72
2023/08/04 11:09:17;;;;;;;;;;;;;;;21.90;100.00;97461.72;5040966;28;19929;-71
2023/08/04 11:11:43;;;;;;;;;;;;;;;22.06;100.00;97468.78;5042271;28;19929;-72
2023/08/04 11:14:09;;;;;;;;;;;;;;;22.10;100.00;97487.91;5043266;28;20004;-71
2023/08/04 11:16:36;;;;;;;;;;;;;;;22.20;100.00;97500.22;5052222;28;19925;-72
2023/08/04 11:19:07;;;;;;;;;;;;;;;22.20;100.00;97501.00;5043488;28;19931;-72
2023/08/04 11:21:34;;;;;;;;;;;;;;;22.18;100.00;97495.13;5026149;28;19945;-71
2023/08/04 11:24:01;;;;;;;;;;;;;;;22.38;100.00;97488.66;5025380;28;19957;-71
2023/08/04 11:26:28;;;;;;;;;;;;;;;22.46;100.00;97476.84;5026180;28;19997;-71
2023/08/04 11:28:56;;;;;;;;;;;;;;;22.60;100.00;97488.06;5026046;28;19925;-71
2023/08/04 11:31:22;;;;;;;;;;;;;;;22.69;100.00;97495.28;5031605;28;19935;-72
2023/08/04 11:33:51;;;;;;;;;;;;;;;22.67;100.00;97497.56;5031599;28;19932;-71
2023/08/04 11:36:17;;;;;;;;;;;;;;;22.74;100.00;97506.72;5031534;28;19953;-72
2023/08/04 11:38:44;;;;;;;;;;;;;;;22.56;100.00;97511.66;5013838;28;20382;-71
2023/08/04 11:41:13;;;;;;;;;;;;;;;22.57;100.00;97518.69;5031578;28;19932;-72
2023/08/04 11:43:39;;;;;;;;;;;;;;;22.34;100.00;97530.53;5031772;28;19932;-72
2023/08/04 11:46:07;;;;;;;;;;;;;;;22.67;100.00;97535.69;5040607;28;19925;-72
2023/08/04 11:48:34;;;;;;;;;;;;;;;22.62;100.00;97527.75;5042622;28;19936;-71
2023/08/04 11:51:00;;;;;;;;;;;;;;;22.32;100.00;97524.63;5042017;28;19936;-71
2023/08/04 11:53:27;;;;;;;;;;;;;;;22.49;100.00;97518.88;5039076;28;19926;-71
2023/08/04 11:55:56;;;;;;;;;;;;;;;22.63;100.00;97515.72;5021288;28;20410;-72
2023/08/04 11:58:34;;;;;;;;;;;;;;;22.58;100.00;97503.97;5021325;28;19926;-72
2023/08/04 12:01:00;;;;;;;;;;;;;;;22.54;100.00;97503.06;5039354;28;19925;-71
2023/08/04 12:03:39;;;;;;;;;;;;;;;22.44;100.00;97506.31;5042388;28;19975;-71
2023/08/04 12:06:12;;;;;;;;;;;;;;;22.40;100.00;97496.47;5039808;28;19981;-72
2023/08/04 12:08:38;;;;;;;;;;;;;;;22.35;100.00;97497.50;5039056;28;19932;-71
2023/08/04 12:11:05;;;;;;;;;;;;;;;22.36;100.00;97492.88;5022599;28;19925;-71
2023/08/04 12:13:35;;;;;;;;;;;;;;;22.24;100.00;97482.84;5042223;28;19980;-71
2023/08/04 12:16:02;;;;;;;;;;;;;;;22.65;100.00;97475.34;5046265;28;19925;-71
2023/08/04 12:18:29;;;;;;;;;;;;;;;22.86;100.00;97459.53;5046810;28;19925;-74
2023/08/04 12:20:56;;;;;;;;;;;;;;;22.81;100.00;97457.88;5046991;28;19944;-74
2023/08/04 12:23:23;;;;;;;;;;;;;;;22.57;100.00;97447.94;5035223;28;19948;-72
2023/08/04 12:25:49;;;;;;;;;;;;;;;22.66;100.00;97449.72;5034851;28;19926;-72
2023/08/04 12:28:16;;;;;;;;;;;;;;;22.67;100.00;97449.38;5034838;28;19932;-72
2023/08/04 12:30:44;;;;;;;;;;;;;;;22.63;100.00;97456.63;5034876;28;19926;-71
2023/08/04 12:33:10;;;;;;;;;;;;;;;22.66;100.00;97457.88;5034552;28;19932;-72
2023/08/04 12:35:36;;;;;;;;;;;;;;;22.61;100.00;97472.53;5034372;28;19932;-71